sensor_id;sensor_type;location;lat;lon;timestamp;P1;durP1;ratioP1;P2;durP2;ratioP2
35324;SDS011;35135;47.510;19.036;2023-03-31T00:00:51;4.40;;;3.35;;
35324;SDS011;35135;47.510;19.036;2023-03-31T00:03:17;4.75;;;3.40;;
35324;SDS011;35135;47.510;19.036;2023-03-31T00:05:46;4.40;;;3.53;;
35324;SDS011;35135;47.510;19.036;2023-03-31T00:08:12;4.70;;;3.38;;
35324;SDS011;35135;47.510;19.036;2023-03-31T00:10:42;5.38;;;3.63;;
35324;SDS011;35135;47.510;19.036;2023-03-31T00:13:09;5.15;;;3.88;;
35324;SDS011;35135;47.510;19.036;2023-03-31T00:15:36;5.25;;;3.60;;
35324;SDS011;35135;47.510;19.036;2023-03-31T00:18:02;4.47;;;3.33;;
35324;SDS011;35135;47.510;19.036;2023-03-31T00:20:28;4.10;;;3.38;;
35324;SDS011;35135;47.510;19.036;2023-03-31T00:22:58;4.13;;;3.42;;
35324;SDS011;35135;47.510;19.036;2023-03-31T00:25:26;4.07;;;3.17;;
35324;SDS011;35135;47.510;19.036;2023-03-31T00:27:51;5.32;;;3.30;;
35324;SDS011;35135;47.510;19.036;2023-03-31T00:30:17;3.83;;;3.00;;
35324;SDS011;35135;47.510;19.036;2023-03-31T00:32:43;4.10;;;3.42;;
35324;SDS011;35135;47.510;19.036;2023-03-31T00:35:09;4.03;;;3.30;;
35324;SDS011;35135;47.510;19.036;2023-03-31T00:37:35;4.32;;;3.40;;
35324;SDS011;35135;47.510;19.036;2023-03-31T00:40:01;4.30;;;2.97;;
35324;SDS011;35135;47.510;19.036;2023-03-31T00:42:38;5.35;;;3.30;;
35324;SDS011;35135;47.510;19.036;2023-03-31T00:48:15;4.10;;;3.30;;
35324;SDS011;35135;47.510;19.036;2023-03-31T00:50:57;3.67;;;3.30;;
35324;SDS011;35135;47.510;19.036;2023-03-31T00:53:27;4.05;;;3.15;;
35324;SDS011;35135;47.510;19.036;2023-03-31T00:55:58;4.40;;;3.17;;
35324;SDS011;35135;47.510;19.036;2023-03-31T00:58:28;3.67;;;3.00;;
35324;SDS011;35135;47.510;19.036;2023-03-31T01:00:57;3.13;;;2.83;;
35324;SDS011;35135;47.510;19.036;2023-03-31T01:03:26;3.88;;;2.90;;
35324;SDS011;35135;47.510;19.036;2023-03-31T01:05:59;3.83;;;2.70;;
35324;SDS011;35135;47.510;19.036;2023-03-31T01:08:30;3.50;;;2.60;;
35324;SDS011;35135;47.510;19.036;2023-03-31T01:10:58;3.42;;;2.80;;
35324;SDS011;35135;47.510;19.036;2023-03-31T01:13:27;3.28;;;2.97;;
35324;SDS011;35135;47.510;19.036;2023-03-31T01:15:55;3.50;;;2.70;;
35324;SDS011;35135;47.510;19.036;2023-03-31T01:18:21;3.78;;;2.92;;
35324;SDS011;35135;47.510;19.036;2023-03-31T01:35:49;3.30;;;2.88;;
35324;SDS011;35135;47.510;19.036;2023-03-31T01:44:25;3.13;;;2.60;;
35324;SDS011;35135;47.510;19.036;2023-03-31T01:52:33;3.42;;;2.92;;
35324;SDS011;35135;47.510;19.036;2023-03-31T01:55:07;3.88;;;2.40;;
35324;SDS011;35135;47.510;19.036;2023-03-31T01:57:38;3.38;;;2.33;;
35324;SDS011;35135;47.510;19.036;2023-03-31T02:00:13;3.05;;;2.35;;
35324;SDS011;35135;47.510;19.036;2023-03-31T02:05:25;2.83;;;2.17;;
35324;SDS011;35135;47.510;19.036;2023-03-31T02:07:55;2.83;;;2.00;;
35324;SDS011;35135;47.510;19.036;2023-03-31T02:10:26;3.50;;;2.37;;
35324;SDS011;35135;47.510;19.036;2023-03-31T02:12:55;2.47;;;2.10;;
35324;SDS011;35135;47.510;19.036;2023-03-31T02:15:30;3.53;;;2.50;;
35324;SDS011;35135;47.510;19.036;2023-03-31T02:18:02;3.35;;;2.47;;
35324;SDS011;35135;47.510;19.036;2023-03-31T02:20:35;3.17;;;2.45;;
35324;SDS011;35135;47.510;19.036;2023-03-31T02:23:06;2.75;;;2.40;;
35324;SDS011;35135;47.510;19.036;2023-03-31T02:25:35;2.67;;;2.00;;
35324;SDS011;35135;47.510;19.036;2023-03-31T02:28:10;4.22;;;2.20;;
35324;SDS011;35135;47.510;19.036;2023-03-31T02:30:44;2.50;;;2.30;;
35324;SDS011;35135;47.510;19.036;2023-03-31T02:33:33;3.38;;;2.33;;
35324;SDS011;35135;47.510;19.036;2023-03-31T02:35:59;2.83;;;2.30;;
35324;SDS011;35135;47.510;19.036;2023-03-31T02:38:25;2.75;;;2.03;;
35324;SDS011;35135;47.510;19.036;2023-03-31T02:40:51;3.55;;;2.17;;
35324;SDS011;35135;47.510;19.036;2023-03-31T02:43:17;2.58;;;1.92;;
35324;SDS011;35135;47.510;19.036;2023-03-31T02:45:47;2.97;;;2.30;;
35324;SDS011;35135;47.510;19.036;2023-03-31T02:53:42;2.60;;;2.00;;
35324;SDS011;35135;47.510;19.036;2023-03-31T03:07:54;2.78;;;2.00;;
35324;SDS011;35135;47.510;19.036;2023-03-31T03:13:21;2.35;;;2.03;;
35324;SDS011;35135;47.510;19.036;2023-03-31T03:15:56;2.80;;;1.80;;
35324;SDS011;35135;47.510;19.036;2023-03-31T03:18:28;2.13;;;1.92;;
35324;SDS011;35135;47.510;19.036;2023-03-31T03:20:54;3.20;;;2.08;;
35324;SDS011;35135;47.510;19.036;2023-03-31T03:23:19;2.10;;;1.90;;
35324;SDS011;35135;47.510;19.036;2023-03-31T03:25:46;2.47;;;1.92;;
35324;SDS011;35135;47.510;19.036;2023-03-31T03:28:12;2.08;;;1.77;;
35324;SDS011;35135;47.510;19.036;2023-03-31T03:30:37;1.90;;;1.70;;
35324;SDS011;35135;47.510;19.036;2023-03-31T03:33:03;2.45;;;1.95;;
35324;SDS011;35135;47.510;19.036;2023-03-31T03:35:31;2.65;;;1.83;;
35324;SDS011;35135;47.510;19.036;2023-03-31T03:37:57;2.95;;;1.70;;
35324;SDS011;35135;47.510;19.036;2023-03-31T03:40:24;2.22;;;1.85;;
35324;SDS011;35135;47.510;19.036;2023-03-31T03:42:49;3.10;;;1.83;;
35324;SDS011;35135;47.510;19.036;2023-03-31T03:45:15;2.70;;;1.90;;
35324;SDS011;35135;47.510;19.036;2023-03-31T03:47:41;1.65;;;1.50;;
35324;SDS011;35135;47.510;19.036;2023-03-31T03:50:07;2.53;;;2.05;;
35324;SDS011;35135;47.510;19.036;2023-03-31T03:52:33;2.15;;;1.70;;
35324;SDS011;35135;47.510;19.036;2023-03-31T03:54:59;5.22;;;2.03;;
35324;SDS011;35135;47.510;19.036;2023-03-31T03:57:26;2.17;;;1.88;;
35324;SDS011;35135;47.510;19.036;2023-03-31T03:59:51;2.28;;;1.80;;
35324;SDS011;35135;47.510;19.036;2023-03-31T04:02:17;1.98;;;1.70;;
35324;SDS011;35135;47.510;19.036;2023-03-31T04:04:43;1.98;;;1.40;;
35324;SDS011;35135;47.510;19.036;2023-03-31T04:07:09;2.65;;;1.70;;
35324;SDS011;35135;47.510;19.036;2023-03-31T04:09:35;1.83;;;1.35;;
35324;SDS011;35135;47.510;19.036;2023-03-31T04:12:01;1.88;;;1.52;;
35324;SDS011;35135;47.510;19.036;2023-03-31T04:14:26;2.63;;;1.73;;
35324;SDS011;35135;47.510;19.036;2023-03-31T04:16:52;1.60;;;1.50;;
35324;SDS011;35135;47.510;19.036;2023-03-31T04:19:20;3.50;;;1.73;;
35324;SDS011;35135;47.510;19.036;2023-03-31T04:21:49;1.95;;;1.70;;
35324;SDS011;35135;47.510;19.036;2023-03-31T04:24:23;1.88;;;1.50;;
35324;SDS011;35135;47.510;19.036;2023-03-31T04:26:54;2.90;;;2.00;;
35324;SDS011;35135;47.510;19.036;2023-03-31T04:29:21;2.55;;;1.60;;
35324;SDS011;35135;47.510;19.036;2023-03-31T04:31:51;1.80;;;1.60;;
35324;SDS011;35135;47.510;19.036;2023-03-31T04:34:18;1.95;;;1.60;;
35324;SDS011;35135;47.510;19.036;2023-03-31T04:36:46;2.47;;;1.50;;
35324;SDS011;35135;47.510;19.036;2023-03-31T04:39:16;2.30;;;1.70;;
35324;SDS011;35135;47.510;19.036;2023-03-31T04:41:51;2.25;;;1.80;;
35324;SDS011;35135;47.510;19.036;2023-03-31T04:44:17;1.83;;;1.35;;
35324;SDS011;35135;47.510;19.036;2023-03-31T04:46:43;2.90;;;1.90;;
35324;SDS011;35135;47.510;19.036;2023-03-31T04:49:08;2.75;;;1.70;;
35324;SDS011;35135;47.510;19.036;2023-03-31T04:51:34;1.83;;;1.40;;
35324;SDS011;35135;47.510;19.036;2023-03-31T04:54:00;1.65;;;1.38;;
35324;SDS011;35135;47.510;19.036;2023-03-31T04:56:25;1.63;;;1.25;;
35324;SDS011;35135;47.510;19.036;2023-03-31T04:58:51;3.17;;;1.40;;
35324;SDS011;35135;47.510;19.036;2023-03-31T05:01:17;2.10;;;1.45;;
35324;SDS011;35135;47.510;19.036;2023-03-31T05:03:45;2.00;;;1.50;;
35324;SDS011;35135;47.510;19.036;2023-03-31T05:06:14;2.70;;;1.63;;
35324;SDS011;35135;47.510;19.036;2023-03-31T05:08:40;2.75;;;1.52;;
35324;SDS011;35135;47.510;19.036;2023-03-31T05:11:07;4.32;;;1.60;;
35324;SDS011;35135;47.510;19.036;2023-03-31T05:13:33;2.53;;;1.30;;
35324;SDS011;35135;47.510;19.036;2023-03-31T05:16:09;4.18;;;1.83;;
35324;SDS011;35135;47.510;19.036;2023-03-31T05:18:38;3.53;;;1.63;;
35324;SDS011;35135;47.510;19.036;2023-03-31T05:23:37;3.70;;;1.63;;
35324;SDS011;35135;47.510;19.036;2023-03-31T05:26:03;9.65;;;2.10;;
35324;SDS011;35135;47.510;19.036;2023-03-31T05:28:30;6.72;;;1.92;;
35324;SDS011;35135;47.510;19.036;2023-03-31T05:30:58;4.43;;;1.55;;
35324;SDS011;35135;47.510;19.036;2023-03-31T05:33:25;5.97;;;2.08;;
35324;SDS011;35135;47.510;19.036;2023-03-31T05:35:51;9.13;;;2.22;;
35324;SDS011;35135;47.510;19.036;2023-03-31T05:38:17;5.10;;;1.77;;
35324;SDS011;35135;47.510;19.036;2023-03-31T05:40:43;3.28;;;1.92;;
35324;SDS011;35135;47.510;19.036;2023-03-31T05:43:09;3.50;;;1.75;;
35324;SDS011;35135;47.510;19.036;2023-03-31T05:45:34;3.65;;;1.90;;
35324;SDS011;35135;47.510;19.036;2023-03-31T05:48:00;7.35;;;2.08;;
35324;SDS011;35135;47.510;19.036;2023-03-31T05:50:26;6.78;;;2.30;;
35324;SDS011;35135;47.510;19.036;2023-03-31T05:52:51;2.92;;;1.50;;
35324;SDS011;35135;47.510;19.036;2023-03-31T05:55:17;5.32;;;1.92;;
35324;SDS011;35135;47.510;19.036;2023-03-31T05:57:43;4.32;;;1.60;;
35324;SDS011;35135;47.510;19.036;2023-03-31T06:00:09;9.48;;;2.95;;
35324;SDS011;35135;47.510;19.036;2023-03-31T06:02:35;6.40;;;2.03;;
35324;SDS011;35135;47.510;19.036;2023-03-31T06:05:01;8.38;;;2.20;;
35324;SDS011;35135;47.510;19.036;2023-03-31T06:07:27;6.85;;;1.90;;
35324;SDS011;35135;47.510;19.036;2023-03-31T06:09:53;6.85;;;2.10;;
35324;SDS011;35135;47.510;19.036;2023-03-31T06:12:19;11.27;;;2.63;;
35324;SDS011;35135;47.510;19.036;2023-03-31T06:14:45;8.10;;;1.98;;
35324;SDS011;35135;47.510;19.036;2023-03-31T06:17:11;5.93;;;2.42;;
35324;SDS011;35135;47.510;19.036;2023-03-31T06:19:36;6.60;;;2.10;;
35324;SDS011;35135;47.510;19.036;2023-03-31T06:22:02;5.15;;;1.90;;
35324;SDS011;35135;47.510;19.036;2023-03-31T06:24:28;9.93;;;2.25;;
35324;SDS011;35135;47.510;19.036;2023-03-31T06:26:53;6.63;;;1.80;;
35324;SDS011;35135;47.510;19.036;2023-03-31T06:29:19;7.40;;;2.30;;
35324;SDS011;35135;47.510;19.036;2023-03-31T06:31:45;4.53;;;1.90;;
35324;SDS011;35135;47.510;19.036;2023-03-31T06:34:10;6.10;;;1.90;;
35324;SDS011;35135;47.510;19.036;2023-03-31T06:36:36;9.60;;;2.13;;
35324;SDS011;35135;47.510;19.036;2023-03-31T06:39:02;11.93;;;2.95;;
35324;SDS011;35135;47.510;19.036;2023-03-31T06:41:27;6.88;;;2.35;;
35324;SDS011;35135;47.510;19.036;2023-03-31T06:43:53;9.25;;;2.13;;
35324;SDS011;35135;47.510;19.036;2023-03-31T06:46:19;6.25;;;1.90;;
35324;SDS011;35135;47.510;19.036;2023-03-31T06:48:45;7.97;;;2.42;;
35324;SDS011;35135;47.510;19.036;2023-03-31T06:51:11;5.65;;;2.53;;
35324;SDS011;35135;47.510;19.036;2023-03-31T06:53:37;5.57;;;2.28;;
35324;SDS011;35135;47.510;19.036;2023-03-31T06:56:03;5.53;;;2.10;;
35324;SDS011;35135;47.510;19.036;2023-03-31T06:58:30;5.20;;;1.90;;
35324;SDS011;35135;47.510;19.036;2023-03-31T07:00:56;7.75;;;1.70;;
35324;SDS011;35135;47.510;19.036;2023-03-31T07:03:21;6.32;;;2.00;;
35324;SDS011;35135;47.510;19.036;2023-03-31T07:05:49;6.38;;;2.38;;
35324;SDS011;35135;47.510;19.036;2023-03-31T07:08:16;6.35;;;1.75;;
35324;SDS011;35135;47.510;19.036;2023-03-31T07:10:42;4.88;;;1.88;;
35324;SDS011;35135;47.510;19.036;2023-03-31T07:13:12;7.50;;;1.80;;
35324;SDS011;35135;47.510;19.036;2023-03-31T07:15:38;7.63;;;1.95;;
35324;SDS011;35135;47.510;19.036;2023-03-31T07:18:03;9.13;;;2.40;;
35324;SDS011;35135;47.510;19.036;2023-03-31T07:20:29;7.38;;;2.00;;
35324;SDS011;35135;47.510;19.036;2023-03-31T07:22:55;6.70;;;1.95;;
35324;SDS011;35135;47.510;19.036;2023-03-31T07:25:21;5.35;;;2.38;;
35324;SDS011;35135;47.510;19.036;2023-03-31T07:27:46;4.25;;;2.03;;
35324;SDS011;35135;47.510;19.036;2023-03-31T07:30:13;6.45;;;2.30;;
35324;SDS011;35135;47.510;19.036;2023-03-31T07:32:41;4.57;;;1.95;;
35324;SDS011;35135;47.510;19.036;2023-03-31T07:35:10;5.38;;;2.17;;
35324;SDS011;35135;47.510;19.036;2023-03-31T07:37:36;11.25;;;2.38;;
35324;SDS011;35135;47.510;19.036;2023-03-31T07:40:03;4.55;;;1.90;;
35324;SDS011;35135;47.510;19.036;2023-03-31T07:42:30;11.77;;;2.75;;
35324;SDS011;35135;47.510;19.036;2023-03-31T07:44:56;5.90;;;1.60;;
35324;SDS011;35135;47.510;19.036;2023-03-31T07:47:22;5.07;;;1.85;;
35324;SDS011;35135;47.510;19.036;2023-03-31T07:49:48;3.65;;;1.90;;
35324;SDS011;35135;47.510;19.036;2023-03-31T07:52:15;5.88;;;2.05;;
35324;SDS011;35135;47.510;19.036;2023-03-31T07:54:42;2.78;;;1.42;;
35324;SDS011;35135;47.510;19.036;2023-03-31T07:57:08;4.70;;;2.00;;
35324;SDS011;35135;47.510;19.036;2023-03-31T07:59:34;7.25;;;1.88;;
35324;SDS011;35135;47.510;19.036;2023-03-31T08:02:00;4.40;;;1.83;;
35324;SDS011;35135;47.510;19.036;2023-03-31T08:04:25;3.10;;;1.70;;
35324;SDS011;35135;47.510;19.036;2023-03-31T08:06:51;3.53;;;1.52;;
35324;SDS011;35135;47.510;19.036;2023-03-31T08:09:17;5.80;;;2.03;;
35324;SDS011;35135;47.510;19.036;2023-03-31T08:11:43;5.03;;;1.90;;
35324;SDS011;35135;47.510;19.036;2023-03-31T08:14:09;2.80;;;1.60;;
35324;SDS011;35135;47.510;19.036;2023-03-31T08:16:35;4.72;;;1.70;;
35324;SDS011;35135;47.510;19.036;2023-03-31T08:19:01;3.08;;;1.52;;
35324;SDS011;35135;47.510;19.036;2023-03-31T08:21:27;4.35;;;1.75;;
35324;SDS011;35135;47.510;19.036;2023-03-31T08:23:54;4.45;;;1.60;;
35324;SDS011;35135;47.510;19.036;2023-03-31T08:26:20;2.72;;;1.52;;
35324;SDS011;35135;47.510;19.036;2023-03-31T08:28:48;2.47;;;1.60;;
35324;SDS011;35135;47.510;19.036;2023-03-31T08:31:14;2.65;;;1.52;;
35324;SDS011;35135;47.510;19.036;2023-03-31T08:33:42;3.63;;;1.90;;
35324;SDS011;35135;47.510;19.036;2023-03-31T08:36:09;2.67;;;1.63;;
35324;SDS011;35135;47.510;19.036;2023-03-31T08:38:38;4.45;;;1.73;;
35324;SDS011;35135;47.510;19.036;2023-03-31T08:41:06;4.35;;;1.80;;
35324;SDS011;35135;47.510;19.036;2023-03-31T08:43:55;4.70;;;1.63;;
35324;SDS011;35135;47.510;19.036;2023-03-31T08:46:24;3.15;;;1.52;;
35324;SDS011;35135;47.510;19.036;2023-03-31T08:48:54;3.00;;;1.58;;
35324;SDS011;35135;47.510;19.036;2023-03-31T08:51:31;4.13;;;1.67;;
35324;SDS011;35135;47.510;19.036;2023-03-31T08:56:29;2.25;;;1.70;;
35324;SDS011;35135;47.510;19.036;2023-03-31T08:59:06;3.17;;;1.67;;
35324;SDS011;35135;47.510;19.036;2023-03-31T09:04:36;3.28;;;1.60;;
35324;SDS011;35135;47.510;19.036;2023-03-31T09:16:01;2.45;;;1.52;;
35324;SDS011;35135;47.510;19.036;2023-03-31T09:22:17;3.20;;;1.63;;
35324;SDS011;35135;47.510;19.036;2023-03-31T09:25:06;2.75;;;1.55;;
35324;SDS011;35135;47.510;19.036;2023-03-31T09:28:08;3.08;;;1.60;;
35324;SDS011;35135;47.510;19.036;2023-03-31T09:30:42;4.82;;;1.77;;
35324;SDS011;35135;47.510;19.036;2023-03-31T09:33:14;2.97;;;1.50;;
35324;SDS011;35135;47.510;19.036;2023-03-31T09:38:25;2.88;;;1.40;;
35324;SDS011;35135;47.510;19.036;2023-03-31T09:40:58;3.03;;;1.60;;
35324;SDS011;35135;47.510;19.036;2023-03-31T09:43:30;3.95;;;1.58;;
35324;SDS011;35135;47.510;19.036;2023-03-31T09:45:59;3.00;;;1.50;;
35324;SDS011;35135;47.510;19.036;2023-03-31T09:48:26;2.83;;;1.20;;
35324;SDS011;35135;47.510;19.036;2023-03-31T09:50:56;2.33;;;1.40;;
35324;SDS011;35135;47.510;19.036;2023-03-31T09:53:34;2.65;;;1.63;;
35324;SDS011;35135;47.510;19.036;2023-03-31T09:56:30;3.92;;;1.52;;
35324;SDS011;35135;47.510;19.036;2023-03-31T09:58:59;2.10;;;1.65;;
35324;SDS011;35135;47.510;19.036;2023-03-31T10:01:26;2.30;;;1.40;;
35324;SDS011;35135;47.510;19.036;2023-03-31T10:03:53;3.03;;;1.40;;
35324;SDS011;35135;47.510;19.036;2023-03-31T10:06:20;2.55;;;1.90;;
35324;SDS011;35135;47.510;19.036;2023-03-31T10:08:49;2.78;;;1.50;;
35324;SDS011;35135;47.510;19.036;2023-03-31T10:11:19;4.33;;;1.63;;
35324;SDS011;35135;47.510;19.036;2023-03-31T10:13:50;2.58;;;1.50;;
35324;SDS011;35135;47.510;19.036;2023-03-31T10:19:24;3.35;;;1.35;;
35324;SDS011;35135;47.510;19.036;2023-03-31T10:21:58;2.45;;;1.17;;
35324;SDS011;35135;47.510;19.036;2023-03-31T10:24:35;4.55;;;1.48;;
35324;SDS011;35135;47.510;19.036;2023-03-31T10:27:03;2.80;;;1.50;;
35324;SDS011;35135;47.510;19.036;2023-03-31T10:29:31;2.30;;;1.55;;
35324;SDS011;35135;47.510;19.036;2023-03-31T10:32:07;2.38;;;1.42;;
35324;SDS011;35135;47.510;19.036;2023-03-31T10:34:37;3.45;;;1.42;;
35324;SDS011;35135;47.510;19.036;2023-03-31T10:37:17;2.20;;;1.27;;
35324;SDS011;35135;47.510;19.036;2023-03-31T10:39:46;3.17;;;1.52;;
35324;SDS011;35135;47.510;19.036;2023-03-31T10:42:20;3.50;;;1.63;;
35324;SDS011;35135;47.510;19.036;2023-03-31T10:44:47;4.28;;;1.70;;
35324;SDS011;35135;47.510;19.036;2023-03-31T10:47:17;4.85;;;1.80;;
35324;SDS011;35135;47.510;19.036;2023-03-31T10:49:47;3.60;;;1.40;;
35324;SDS011;35135;47.510;19.036;2023-03-31T10:52:17;2.08;;;1.40;;
35324;SDS011;35135;47.510;19.036;2023-03-31T10:54:46;5.70;;;2.10;;
35324;SDS011;35135;47.510;19.036;2023-03-31T10:57:13;4.72;;;1.85;;
35324;SDS011;35135;47.510;19.036;2023-03-31T11:02:50;4.78;;;2.30;;
35324;SDS011;35135;47.510;19.036;2023-03-31T11:05:36;7.43;;;2.13;;
35324;SDS011;35135;47.510;19.036;2023-03-31T11:16:18;4.45;;;1.70;;
35324;SDS011;35135;47.510;19.036;2023-03-31T11:21:35;6.32;;;1.90;;
35324;SDS011;35135;47.510;19.036;2023-03-31T11:27:11;5.50;;;2.13;;
35324;SDS011;35135;47.510;19.036;2023-03-31T11:30:06;4.18;;;1.80;;
35324;SDS011;35135;47.510;19.036;2023-03-31T11:33:14;5.68;;;1.70;;
35324;SDS011;35135;47.510;19.036;2023-03-31T11:41:15;4.15;;;1.77;;
35324;SDS011;35135;47.510;19.036;2023-03-31T11:44:03;3.17;;;1.70;;
35324;SDS011;35135;47.510;19.036;2023-03-31T11:51:49;5.18;;;2.00;;
35324;SDS011;35135;47.510;19.036;2023-03-31T11:57:22;4.35;;;1.98;;
35324;SDS011;35135;47.510;19.036;2023-03-31T11:59:59;3.85;;;1.35;;
35324;SDS011;35135;47.510;19.036;2023-03-31T12:03:13;3.85;;;1.50;;
35324;SDS011;35135;47.510;19.036;2023-03-31T12:05:24;3.75;;;1.73;;
35324;SDS011;35135;47.510;19.036;2023-03-31T12:10:59;2.83;;;1.80;;
35324;SDS011;35135;47.510;19.036;2023-03-31T12:19:01;3.20;;;1.30;;
35324;SDS011;35135;47.510;19.036;2023-03-31T12:21:55;6.05;;;2.17;;
35324;SDS011;35135;47.510;19.036;2023-03-31T12:24:28;6.68;;;1.75;;
35324;SDS011;35135;47.510;19.036;2023-03-31T12:32:10;4.25;;;1.77;;
35324;SDS011;35135;47.510;19.036;2023-03-31T12:35:25;7.30;;;1.77;;
35324;SDS011;35135;47.510;19.036;2023-03-31T12:40:11;6.75;;;2.10;;
35324;SDS011;35135;47.510;19.036;2023-03-31T12:56:19;4.53;;;1.70;;
35324;SDS011;35135;47.510;19.036;2023-03-31T12:58:45;2.97;;;1.58;;
35324;SDS011;35135;47.510;19.036;2023-03-31T13:01:18;4.90;;;1.52;;
35324;SDS011;35135;47.510;19.036;2023-03-31T13:08:50;2.50;;;1.50;;
35324;SDS011;35135;47.510;19.036;2023-03-31T13:11:38;3.67;;;1.77;;
35324;SDS011;35135;47.510;19.036;2023-03-31T13:14:35;3.22;;;1.92;;
35324;SDS011;35135;47.510;19.036;2023-03-31T13:19:46;4.30;;;1.52;;
35324;SDS011;35135;47.510;19.036;2023-03-31T13:27:55;4.97;;;1.42;;
35324;SDS011;35135;47.510;19.036;2023-03-31T13:33:07;5.13;;;2.10;;
35324;SDS011;35135;47.510;19.036;2023-03-31T13:35:36;4.60;;;1.42;;
35324;SDS011;35135;47.510;19.036;2023-03-31T13:48:47;6.68;;;1.80;;
35324;SDS011;35135;47.510;19.036;2023-03-31T13:51:57;6.40;;;2.20;;
35324;SDS011;35135;47.510;19.036;2023-03-31T13:54:34;5.10;;;1.70;;
35324;SDS011;35135;47.510;19.036;2023-03-31T13:57:23;5.55;;;2.00;;
35324;SDS011;35135;47.510;19.036;2023-03-31T14:14:02;5.95;;;2.03;;
35324;SDS011;35135;47.510;19.036;2023-03-31T14:16:28;5.00;;;1.75;;
35324;SDS011;35135;47.510;19.036;2023-03-31T14:22:31;4.45;;;1.88;;
35324;SDS011;35135;47.510;19.036;2023-03-31T14:39:15;2.97;;;1.33;;
35324;SDS011;35135;47.510;19.036;2023-03-31T14:41:50;4.13;;;1.70;;
35324;SDS011;35135;47.510;19.036;2023-03-31T14:44:17;3.63;;;1.67;;
35324;SDS011;35135;47.510;19.036;2023-03-31T14:46:43;3.80;;;1.67;;
35324;SDS011;35135;47.510;19.036;2023-03-31T14:49:21;4.40;;;1.42;;
35324;SDS011;35135;47.510;19.036;2023-03-31T14:51:51;5.28;;;1.88;;
35324;SDS011;35135;47.510;19.036;2023-03-31T14:54:19;3.55;;;1.45;;
35324;SDS011;35135;47.510;19.036;2023-03-31T14:56:46;4.28;;;1.67;;
35324;SDS011;35135;47.510;19.036;2023-03-31T14:59:25;2.47;;;1.40;;
35324;SDS011;35135;47.510;19.036;2023-03-31T15:01:55;4.10;;;1.63;;
35324;SDS011;35135;47.510;19.036;2023-03-31T15:04:24;4.43;;;1.60;;
35324;SDS011;35135;47.510;19.036;2023-03-31T15:06:52;4.80;;;1.55;;
35324;SDS011;35135;47.510;19.036;2023-03-31T15:09:28;7.40;;;1.80;;
35324;SDS011;35135;47.510;19.036;2023-03-31T15:12:01;3.35;;;1.80;;
35324;SDS011;35135;47.510;19.036;2023-03-31T15:14:31;6.53;;;1.60;;
35324;SDS011;35135;47.510;19.036;2023-03-31T15:19:29;5.25;;;1.75;;
35324;SDS011;35135;47.510;19.036;2023-03-31T15:22:01;3.67;;;1.75;;
35324;SDS011;35135;47.510;19.036;2023-03-31T15:24:35;4.35;;;1.65;;
35324;SDS011;35135;47.510;19.036;2023-03-31T15:29:36;8.13;;;1.90;;
35324;SDS011;35135;47.510;19.036;2023-03-31T15:32:10;6.70;;;1.60;;
35324;SDS011;35135;47.510;19.036;2023-03-31T15:34:40;5.03;;;1.83;;
35324;SDS011;35135;47.510;19.036;2023-03-31T15:37:07;4.85;;;1.77;;
35324;SDS011;35135;47.510;19.036;2023-03-31T15:39:34;6.57;;;2.30;;
35324;SDS011;35135;47.510;19.036;2023-03-31T15:42:01;7.25;;;2.08;;
35324;SDS011;35135;47.510;19.036;2023-03-31T15:44:36;5.43;;;2.50;;
35324;SDS011;35135;47.510;19.036;2023-03-31T15:47:18;3.70;;;2.08;;
35324;SDS011;35135;47.510;19.036;2023-03-31T15:52:24;4.65;;;1.85;;
35324;SDS011;35135;47.510;19.036;2023-03-31T15:58:10;4.95;;;1.88;;
35324;SDS011;35135;47.510;19.036;2023-03-31T16:00:50;10.18;;;2.15;;
35324;SDS011;35135;47.510;19.036;2023-03-31T16:06:14;6.22;;;2.28;;
35324;SDS011;35135;47.510;19.036;2023-03-31T16:09:07;6.47;;;2.13;;
35324;SDS011;35135;47.510;19.036;2023-03-31T16:11:41;3.92;;;1.48;;
35324;SDS011;35135;47.510;19.036;2023-03-31T16:14:21;7.40;;;2.40;;
35324;SDS011;35135;47.510;19.036;2023-03-31T16:16:58;5.45;;;2.30;;
35324;SDS011;35135;47.510;19.036;2023-03-31T16:19:30;5.50;;;1.90;;
35324;SDS011;35135;47.510;19.036;2023-03-31T16:22:03;3.95;;;2.15;;
35324;SDS011;35135;47.510;19.036;2023-03-31T16:24:30;3.72;;;1.67;;
35324;SDS011;35135;47.510;19.036;2023-03-31T16:27:00;3.80;;;2.00;;
35324;SDS011;35135;47.510;19.036;2023-03-31T16:29:30;5.63;;;1.85;;
35324;SDS011;35135;47.510;19.036;2023-03-31T16:32:05;5.20;;;1.75;;
35324;SDS011;35135;47.510;19.036;2023-03-31T16:34:51;3.47;;;2.08;;
35324;SDS011;35135;47.510;19.036;2023-03-31T16:37:25;8.40;;;1.90;;
35324;SDS011;35135;47.510;19.036;2023-03-31T16:39:51;3.13;;;1.98;;
35324;SDS011;35135;47.510;19.036;2023-03-31T16:42:17;3.97;;;1.60;;
35324;SDS011;35135;47.510;19.036;2023-03-31T16:44:43;4.45;;;1.67;;
35324;SDS011;35135;47.510;19.036;2023-03-31T16:47:12;4.40;;;1.80;;
35324;SDS011;35135;47.510;19.036;2023-03-31T16:49:39;7.68;;;2.10;;
35324;SDS011;35135;47.510;19.036;2023-03-31T16:52:05;12.55;;;2.15;;
35324;SDS011;35135;47.510;19.036;2023-03-31T16:54:33;14.57;;;2.90;;
35324;SDS011;35135;47.510;19.036;2023-03-31T16:56:58;7.40;;;2.30;;
35324;SDS011;35135;47.510;19.036;2023-03-31T16:59:25;10.75;;;2.53;;
35324;SDS011;35135;47.510;19.036;2023-03-31T17:01:51;6.55;;;2.15;;
35324;SDS011;35135;47.510;19.036;2023-03-31T17:04:16;6.97;;;1.70;;
35324;SDS011;35135;47.510;19.036;2023-03-31T17:06:43;10.88;;;1.95;;
35324;SDS011;35135;47.510;19.036;2023-03-31T17:09:09;3.90;;;1.83;;
35324;SDS011;35135;47.510;19.036;2023-03-31T17:11:35;10.95;;;2.15;;
35324;SDS011;35135;47.510;19.036;2023-03-31T17:14:01;6.50;;;2.38;;
35324;SDS011;35135;47.510;19.036;2023-03-31T17:16:28;6.47;;;2.05;;
35324;SDS011;35135;47.510;19.036;2023-03-31T17:18:53;6.75;;;2.00;;
35324;SDS011;35135;47.510;19.036;2023-03-31T17:21:19;4.97;;;1.65;;
35324;SDS011;35135;47.510;19.036;2023-03-31T17:23:46;6.70;;;2.05;;
35324;SDS011;35135;47.510;19.036;2023-03-31T17:26:12;8.13;;;2.10;;
35324;SDS011;35135;47.510;19.036;2023-03-31T17:28:38;5.28;;;2.22;;
35324;SDS011;35135;47.510;19.036;2023-03-31T17:31:13;6.38;;;1.83;;
35324;SDS011;35135;47.510;19.036;2023-03-31T17:33:41;7.63;;;1.92;;
35324;SDS011;35135;47.510;19.036;2023-03-31T17:36:07;9.68;;;2.10;;
35324;SDS011;35135;47.510;19.036;2023-03-31T17:38:33;11.27;;;2.17;;
35324;SDS011;35135;47.510;19.036;2023-03-31T17:41:03;10.48;;;2.13;;
35324;SDS011;35135;47.510;19.036;2023-03-31T17:43:30;12.88;;;2.40;;
35324;SDS011;35135;47.510;19.036;2023-03-31T17:46:02;10.20;;;2.13;;
35324;SDS011;35135;47.510;19.036;2023-03-31T17:48:29;7.65;;;2.05;;
35324;SDS011;35135;47.510;19.036;2023-03-31T17:50:55;5.80;;;1.80;;
35324;SDS011;35135;47.510;19.036;2023-03-31T17:53:21;6.65;;;2.15;;
35324;SDS011;35135;47.510;19.036;2023-03-31T17:55:46;13.88;;;2.63;;
35324;SDS011;35135;47.510;19.036;2023-03-31T17:58:12;11.50;;;2.22;;
35324;SDS011;35135;47.510;19.036;2023-03-31T18:00:38;7.93;;;2.78;;
35324;SDS011;35135;47.510;19.036;2023-03-31T18:03:05;12.93;;;2.65;;
35324;SDS011;35135;47.510;19.036;2023-03-31T18:05:30;12.18;;;2.15;;
35324;SDS011;35135;47.510;19.036;2023-03-31T18:07:57;14.43;;;3.08;;
35324;SDS011;35135;47.510;19.036;2023-03-31T18:10:23;14.27;;;4.53;;
35324;SDS011;35135;47.510;19.036;2023-03-31T18:12:49;16.33;;;5.15;;
35324;SDS011;35135;47.510;19.036;2023-03-31T18:15:15;18.83;;;6.72;;
35324;SDS011;35135;47.510;19.036;2023-03-31T18:17:41;21.02;;;7.75;;
35324;SDS011;35135;47.510;19.036;2023-03-31T18:20:07;21.65;;;8.45;;